sensor_id;sensor_type;location;lat;lon;timestamp;temperature;humidity
3246;DHT22;1635;48.000;10.582;2022-08-21T00:01:15;13.80;99.90
3246;DHT22;1635;48.000;10.582;2022-08-21T00:03:44;13.80;99.90
3246;DHT22;1635;48.000;10.582;2022-08-21T00:06:12;13.70;99.90
3246;DHT22;1635;48.000;10.582;2022-08-21T00:08:41;13.70;99.90
3246;DHT22;1635;48.000;10.582;2022-08-21T00:11:09;13.70;99.90
3246;DHT22;1635;48.000;10.582;2022-08-21T00:13:38;13.70;99.90
3246;DHT22;1635;48.000;10.582;2022-08-21T00:16:05;13.60;99.90
3246;DHT22;1635;48.000;10.582;2022-08-21T00:18:33;13.60;99.90
3246;DHT22;1635;48.000;10.582;2022-08-21T00:21:01;13.50;99.90
3246;DHT22;1635;48.000;10.582;2022-08-21T00:23:30;13.50;99.90
3246;DHT22;1635;48.000;10.582;2022-08-21T00:25:59;13.80;99.90
3246;DHT22;1635;48.000;10.582;2022-08-21T00:28:27;13.90;99.90
3246;DHT22;1635;48.000;10.582;2022-08-21T00:30:55;14.20;99.90
3246;DHT22;1635;48.000;10.582;2022-08-21T00:33:25;14.40;99.90
3246;DHT22;1635;48.000;10.582;2022-08-21T00:35:53;14.60;99.90
3246;DHT22;1635;48.000;10.582;2022-08-21T00:38:22;14.80;99.90
3246;DHT22;1635;48.000;10.582;2022-08-21T00:40:54;14.90;99.90
3246;DHT22;1635;48.000;10.582;2022-08-21T00:43:26;14.90;99.90
3246;DHT22;1635;48.000;10.582;2022-08-21T00:45:56;14.90;99.90
3246;DHT22;1635;48.000;10.582;2022-08-21T00:48:26;15.00;99.90
3246;DHT22;1635;48.000;10.582;2022-08-21T00:51:13;15.10;99.90
3246;DHT22;1635;48.000;10.582;2022-08-21T00:53:45;15.10;99.90
3246;DHT22;1635;48.000;10.582;2022-08-21T00:56:21;15.10;99.90
3246;DHT22;1635;48.000;10.582;2022-08-21T00:58:51;15.10;99.90
3246;DHT22;1635;48.000;10.582;2022-08-21T01:01:21;15.10;99.90
3246;DHT22;1635;48.000;10.582;2022-08-21T01:03:49;15.10;99.90
3246;DHT22;1635;48.000;10.582;2022-08-21T01:06:18;15.10;99.90
3246;DHT22;1635;48.000;10.582;2022-08-21T01:08:46;15.20;99.90
3246;DHT22;1635;48.000;10.582;2022-08-21T01:11:15;15.20;99.90
3246;DHT22;1635;48.000;10.582;2022-08-21T01:13:44;15.20;99.90
3246;DHT22;1635;48.000;10.582;2022-08-21T01:16:15;15.20;99.90
3246;DHT22;1635;48.000;10.582;2022-08-21T01:18:44;15.10;99.90
3246;DHT22;1635;48.000;10.582;2022-08-21T01:21:24;15.10;99.90
3246;DHT22;1635;48.000;10.582;2022-08-21T01:23:56;15.10;99.90
3246;DHT22;1635;48.000;10.582;2022-08-21T01:26:32;15.10;99.90
3246;DHT22;1635;48.000;10.582;2022-08-21T01:29:34;15.10;99.90
3246;DHT22;1635;48.000;10.582;2022-08-21T01:32:07;15.00;99.90
3246;DHT22;1635;48.000;10.582;2022-08-21T01:34:38;15.00;99.90
3246;DHT22;1635;48.000;10.582;2022-08-21T01:37:07;15.00;99.90
3246;DHT22;1635;48.000;10.582;2022-08-21T01:39:36;15.00;99.90
3246;DHT22;1635;48.000;10.582;2022-08-21T01:42:05;15.00;99.90
3246;DHT22;1635;48.000;10.582;2022-08-21T01:44:35;15.00;99.90
3246;DHT22;1635;48.000;10.582;2022-08-21T01:47:06;14.90;99.90
3246;DHT22;1635;48.000;10.582;2022-08-21T01:49:36;14.90;99.90
3246;DHT22;1635;48.000;10.582;2022-08-21T01:52:06;14.90;99.90
3246;DHT22;1635;48.000;10.582;2022-08-21T01:54:37;14.90;99.90
3246;DHT22;1635;48.000;10.582;2022-08-21T01:57:05;14.90;99.90
3246;DHT22;1635;48.000;10.582;2022-08-21T01:59:34;14.90;99.90
3246;DHT22;1635;48.000;10.582;2022-08-21T02:02:02;14.90;99.90
3246;DHT22;1635;48.000;10.582;2022-08-21T02:04:32;14.90;99.90
3246;DHT22;1635;48.000;10.582;2022-08-21T02:07:01;14.90;99.90
3246;DHT22;1635;48.000;10.582;2022-08-21T02:09:29;14.90;99.90
3246;DHT22;1635;48.000;10.582;2022-08-21T02:12:06;14.90;99.90
3246;DHT22;1635;48.000;10.582;2022-08-21T02:15:13;14.90;99.90
3246;DHT22;1635;48.000;10.582;2022-08-21T02:18:01;14.90;99.90
3246;DHT22;1635;48.000;10.582;2022-08-21T02:21:02;14.90;99.90
3246;DHT22;1635;48.000;10.582;2022-08-21T02:23:57;14.90;99.90
3246;DHT22;1635;48.000;10.582;2022-08-21T02:26:40;14.90;99.90
3246;DHT22;1635;48.000;10.582;2022-08-21T02:29:08;14.80;99.90
3246;DHT22;1635;48.000;10.582;2022-08-21T02:31:36;14.90;99.90
3246;DHT22;1635;48.000;10.582;2022-08-21T02:34:05;14.90;99.90
3246;DHT22;1635;48.000;10.582;2022-08-21T02:36:33;14.90;99.90
3246;DHT22;1635;48.000;10.582;2022-08-21T02:39:01;14.90;99.90
3246;DHT22;1635;48.000;10.582;2022-08-21T02:41:29;14.80;99.90
3246;DHT22;1635;48.000;10.582;2022-08-21T02:43:57;14.80;99.90
3246;DHT22;1635;48.000;10.582;2022-08-21T02:46:25;14.80;99.90
3246;DHT22;1635;48.000;10.582;2022-08-21T02:48:53;14.70;99.90
3246;DHT22;1635;48.000;10.582;2022-08-21T02:51:21;14.70;99.90
3246;DHT22;1635;48.000;10.582;2022-08-21T02:53:50;14.70;99.90
3246;DHT22;1635;48.000;10.582;2022-08-21T02:56:20;14.70;99.90
3246;DHT22;1635;48.000;10.582;2022-08-21T02:58:51;14.60;99.90
3246;DHT22;1635;48.000;10.582;2022-08-21T03:01:21;14.50;99.90
3246;DHT22;1635;48.000;10.582;2022-08-21T03:03:49;14.50;99.90
3246;DHT22;1635;48.000;10.582;2022-08-21T03:06:20;14.50;99.90
3246;DHT22;1635;48.000;10.582;2022-08-21T03:08:48;14.50;99.90
3246;DHT22;1635;48.000;10.582;2022-08-21T03:11:17;14.40;99.90
3246;DHT22;1635;48.000;10.582;2022-08-21T03:13:45;14.40;99.90
3246;DHT22;1635;48.000;10.582;2022-08-21T03:16:12;14.30;99.90
3246;DHT22;1635;48.000;10.582;2022-08-21T03:18:40;14.30;99.90
3246;DHT22;1635;48.000;10.582;2022-08-21T03:21:09;14.30;99.90
3246;DHT22;1635;48.000;10.582;2022-08-21T03:23:37;14.30;99.90
3246;DHT22;1635;48.000;10.582;2022-08-21T03:26:07;14.20;99.90
3246;DHT22;1635;48.000;10.582;2022-08-21T03:28:36;14.00;99.90
3246;DHT22;1635;48.000;10.582;2022-08-21T03:31:04;13.80;99.90
3246;DHT22;1635;48.000;10.582;2022-08-21T03:33:33;13.60;99.90
3246;DHT22;1635;48.000;10.582;2022-08-21T03:36:05;13.30;99.90
3246;DHT22;1635;48.000;10.582;2022-08-21T03:38:34;13.20;99.90
3246;DHT22;1635;48.000;10.582;2022-08-21T03:41:04;13.00;99.90
3246;DHT22;1635;48.000;10.582;2022-08-21T03:43:33;13.00;99.90
3246;DHT22;1635;48.000;10.582;2022-08-21T03:46:02;12.90;99.90
3246;DHT22;1635;48.000;10.582;2022-08-21T03:48:31;12.80;99.90
3246;DHT22;1635;48.000;10.582;2022-08-21T03:51:00;12.70;99.90
3246;DHT22;1635;48.000;10.582;2022-08-21T03:53:29;12.70;99.90
3246;DHT22;1635;48.000;10.582;2022-08-21T03:55:58;12.70;99.90
3246;DHT22;1635;48.000;10.582;2022-08-21T03:58:27;12.60;99.90
3246;DHT22;1635;48.000;10.582;2022-08-21T04:00:58;12.50;99.90
3246;DHT22;1635;48.000;10.582;2022-08-21T04:03:28;12.40;99.90
3246;DHT22;1635;48.000;10.582;2022-08-21T04:05:56;12.40;99.90
3246;DHT22;1635;48.000;10.582;2022-08-21T04:08:24;12.40;99.90
3246;DHT22;1635;48.000;10.582;2022-08-21T04:10:55;12.30;99.90
3246;DHT22;1635;48.000;10.582;2022-08-21T04:13:25;12.40;99.90
3246;DHT22;1635;48.000;10.582;2022-08-21T04:15:55;12.40;99.90
3246;DHT22;1635;48.000;10.582;2022-08-21T04:18:24;12.30;99.90
3246;DHT22;1635;48.000;10.582;2022-08-21T04:20:52;12.20;99.90
3246;DHT22;1635;48.000;10.582;2022-08-21T04:23:22;12.20;99.90
3246;DHT22;1635;48.000;10.582;2022-08-21T04:25:52;12.20;99.90
3246;DHT22;1635;48.000;10.582;2022-08-21T04:28:22;12.30;99.90
3246;DHT22;1635;48.000;10.582;2022-08-21T04:30:56;12.20;99.90
3246;DHT22;1635;48.000;10.582;2022-08-21T04:33:25;12.20;99.90
3246;DHT22;1635;48.000;10.582;2022-08-21T04:35:52;12.20;99.90
3246;DHT22;1635;48.000;10.582;2022-08-21T04:38:20;12.20;99.90
3246;DHT22;1635;48.000;10.582;2022-08-21T04:40:49;12.20;99.90
3246;DHT22;1635;48.000;10.582;2022-08-21T04:43:17;12.30;99.90
3246;DHT22;1635;48.000;10.582;2022-08-21T04:45:47;12.20;99.90
3246;DHT22;1635;48.000;10.582;2022-08-21T04:48:18;12.20;99.90
3246;DHT22;1635;48.000;10.582;2022-08-21T04:51:24;12.20;99.90
3246;DHT22;1635;48.000;10.582;2022-08-21T04:54:10;12.20;99.90
3246;DHT22;1635;48.000;10.582;2022-08-21T04:56:51;12.20;99.90
3246;DHT22;1635;48.000;10.582;2022-08-21T04:59:24;12.20;99.90
3246;DHT22;1635;48.000;10.582;2022-08-21T05:01:53;12.20;99.90
3246;DHT22;1635;48.000;10.582;2022-08-21T05:04:27;12.30;99.90
3246;DHT22;1635;48.000;10.582;2022-08-21T05:06:58;12.30;99.90
3246;DHT22;1635;48.000;10.582;2022-08-21T05:09:28;12.40;99.90
3246;DHT22;1635;48.000;10.582;2022-08-21T05:11:56;12.40;99.90
3246;DHT22;1635;48.000;10.582;2022-08-21T05:14:24;12.50;99.90
3246;DHT22;1635;48.000;10.582;2022-08-21T05:16:54;12.50;99.90
3246;DHT22;1635;48.000;10.582;2022-08-21T05:19:22;12.60;99.90
3246;DHT22;1635;48.000;10.582;2022-08-21T05:21:51;12.60;99.90
3246;DHT22;1635;48.000;10.582;2022-08-21T05:24:19;12.70;99.90
3246;DHT22;1635;48.000;10.582;2022-08-21T05:26:47;12.80;99.90
3246;DHT22;1635;48.000;10.582;2022-08-21T05:29:16;12.90;99.90
3246;DHT22;1635;48.000;10.582;2022-08-21T05:31:46;13.00;99.90
3246;DHT22;1635;48.000;10.582;2022-08-21T05:34:19;13.10;99.90
3246;DHT22;1635;48.000;10.582;2022-08-21T05:36:47;13.20;99.90
3246;DHT22;1635;48.000;10.582;2022-08-21T05:39:15;13.30;99.90
3246;DHT22;1635;48.000;10.582;2022-08-21T05:41:43;13.50;99.90
3246;DHT22;1635;48.000;10.582;2022-08-21T05:44:11;13.70;99.90
3246;DHT22;1635;48.000;10.582;2022-08-21T05:46:40;13.90;99.90
3246;DHT22;1635;48.000;10.582;2022-08-21T05:49:07;14.10;99.90
3246;DHT22;1635;48.000;10.582;2022-08-21T05:51:35;14.30;99.90
3246;DHT22;1635;48.000;10.582;2022-08-21T05:54:03;14.40;99.90
3246;DHT22;1635;48.000;10.582;2022-08-21T05:56:32;14.50;99.90
3246;DHT22;1635;48.000;10.582;2022-08-21T05:58:59;14.70;99.90
3246;DHT22;1635;48.000;10.582;2022-08-21T06:01:29;14.80;99.90
3246;DHT22;1635;48.000;10.582;2022-08-21T06:03:57;14.90;99.90
3246;DHT22;1635;48.000;10.582;2022-08-21T06:06:28;14.90;99.90
3246;DHT22;1635;48.000;10.582;2022-08-21T06:08:55;15.00;99.90
3246;DHT22;1635;48.000;10.582;2022-08-21T06:11:24;15.10;99.90
3246;DHT22;1635;48.000;10.582;2022-08-21T06:13:55;15.20;99.90
3246;DHT22;1635;48.000;10.582;2022-08-21T06:16:22;15.40;99.90
3246;DHT22;1635;48.000;10.582;2022-08-21T06:18:50;15.70;99.90
3246;DHT22;1635;48.000;10.582;2022-08-21T06:21:19;15.90;99.90
3246;DHT22;1635;48.000;10.582;2022-08-21T06:23:46;16.00;99.90
3246;DHT22;1635;48.000;10.582;2022-08-21T06:26:15;16.10;99.90
3246;DHT22;1635;48.000;10.582;2022-08-21T06:28:43;16.20;99.90
3246;DHT22;1635;48.000;10.582;2022-08-21T06:31:19;16.20;99.90
3246;DHT22;1635;48.000;10.582;2022-08-21T06:33:48;16.30;99.90
3246;DHT22;1635;48.000;10.582;2022-08-21T06:36:18;16.30;99.90
3246;DHT22;1635;48.000;10.582;2022-08-21T06:38:46;16.40;99.90
3246;DHT22;1635;48.000;10.582;2022-08-21T06:41:19;16.50;99.90
3246;DHT22;1635;48.000;10.582;2022-08-21T06:43:55;16.60;99.90
3246;DHT22;1635;48.000;10.582;2022-08-21T06:46:23;16.60;99.90
3246;DHT22;1635;48.000;10.582;2022-08-21T06:48:52;16.70;99.90
3246;DHT22;1635;48.000;10.582;2022-08-21T06:51:19;16.70;99.90
3246;DHT22;1635;48.000;10.582;2022-08-21T06:53:48;16.80;99.90
3246;DHT22;1635;48.000;10.582;2022-08-21T06:56:15;16.90;99.90
3246;DHT22;1635;48.000;10.582;2022-08-21T06:58:43;16.90;99.90
3246;DHT22;1635;48.000;10.582;2022-08-21T07:01:11;17.00;99.90
3246;DHT22;1635;48.000;10.582;2022-08-21T07:03:41;17.20;99.90
3246;DHT22;1635;48.000;10.582;2022-08-21T07:06:10;17.30;99.90
3246;DHT22;1635;48.000;10.582;2022-08-21T07:08:39;17.30;99.90
3246;DHT22;1635;48.000;10.582;2022-08-21T07:11:14;17.50;99.90
3246;DHT22;1635;48.000;10.582;2022-08-21T07:13:45;17.60;99.90
3246;DHT22;1635;48.000;10.582;2022-08-21T07:16:12;17.80;99.90
3246;DHT22;1635;48.000;10.582;2022-08-21T07:18:40;17.90;99.90
3246;DHT22;1635;48.000;10.582;2022-08-21T07:21:08;18.00;99.90
3246;DHT22;1635;48.000;10.582;2022-08-21T07:23:42;18.20;99.90
3246;DHT22;1635;48.000;10.582;2022-08-21T07:26:11;18.30;99.90
3246;DHT22;1635;48.000;10.582;2022-08-21T07:28:39;18.50;99.90
3246;DHT22;1635;48.000;10.582;2022-08-21T07:31:09;18.70;99.90
3246;DHT22;1635;48.000;10.582;2022-08-21T07:33:38;18.80;99.90
3246;DHT22;1635;48.000;10.582;2022-08-21T07:36:06;19.20;99.90
3246;DHT22;1635;48.000;10.582;2022-08-21T07:38:34;20.20;99.90
3246;DHT22;1635;48.000;10.582;2022-08-21T07:41:15;21.10;99.90
3246;DHT22;1635;48.000;10.582;2022-08-21T07:43:44;21.80;99.90
3246;DHT22;1635;48.000;10.582;2022-08-21T07:46:13;22.70;99.90
3246;DHT22;1635;48.000;10.582;2022-08-21T07:48:41;22.80;99.90
3246;DHT22;1635;48.000;10.582;2022-08-21T07:51:12;22.80;99.90
3246;DHT22;1635;48.000;10.582;2022-08-21T07:53:42;23.00;99.90
3246;DHT22;1635;48.000;10.582;2022-08-21T07:56:10;23.40;99.90
3246;DHT22;1635;48.000;10.582;2022-08-21T07:58:39;23.90;99.90
3246;DHT22;1635;48.000;10.582;2022-08-21T08:01:07;24.20;99.90
3246;DHT22;1635;48.000;10.582;2022-08-21T08:03:35;24.30;99.90
3246;DHT22;1635;48.000;10.582;2022-08-21T08:06:04;24.40;99.90
3246;DHT22;1635;48.000;10.582;2022-08-21T08:08:32;24.60;99.90
3246;DHT22;1635;48.000;10.582;2022-08-21T08:11:01;24.90;99.90
3246;DHT22;1635;48.000;10.582;2022-08-21T08:13:28;24.60;99.90
3246;DHT22;1635;48.000;10.582;2022-08-21T08:15:57;25.20;99.90
3246;DHT22;1635;48.000;10.582;2022-08-21T08:18:24;25.30;99.90
3246;DHT22;1635;48.000;10.582;2022-08-21T08:20:53;25.50;99.90
3246;DHT22;1635;48.000;10.582;2022-08-21T08:23:20;25.80;99.90
3246;DHT22;1635;48.000;10.582;2022-08-21T08:25:49;26.00;99.90
3246;DHT22;1635;48.000;10.582;2022-08-21T08:28:17;26.10;99.90
3246;DHT22;1635;48.000;10.582;2022-08-21T08:30:46;26.10;99.90
3246;DHT22;1635;48.000;10.582;2022-08-21T08:33:15;26.30;99.90
3246;DHT22;1635;48.000;10.582;2022-08-21T08:35:46;26.60;99.90
3246;DHT22;1635;48.000;10.582;2022-08-21T08:38:15;27.20;99.90
3246;DHT22;1635;48.000;10.582;2022-08-21T08:41:13;27.10;99.90
3246;DHT22;1635;48.000;10.582;2022-08-21T08:43:49;27.00;99.90
3246;DHT22;1635;48.000;10.582;2022-08-21T08:46:25;27.20;99.90
3246;DHT22;1635;48.000;10.582;2022-08-21T08:48:57;27.30;99.90
3246;DHT22;1635;48.000;10.582;2022-08-21T08:51:58;27.00;99.90
3246;DHT22;1635;48.000;10.582;2022-08-21T08:54:33;27.30;99.90
3246;DHT22;1635;48.000;10.582;2022-08-21T08:57:09;27.80;99.90
3246;DHT22;1635;48.000;10.582;2022-08-21T08:59:41;27.40;99.90
3246;DHT22;1635;48.000;10.582;2022-08-21T09:02:12;27.40;99.90
3246;DHT22;1635;48.000;10.582;2022-08-21T09:04:41;27.90;99.90
3246;DHT22;1635;48.000;10.582;2022-08-21T09:07:40;27.70;99.90
3246;DHT22;1635;48.000;10.582;2022-08-21T09:16:05;28.80;99.90
3246;DHT22;1635;48.000;10.582;2022-08-21T09:19:11;28.60;99.90
3246;DHT22;1635;48.000;10.582;2022-08-21T09:24:32;28.60;99.90
3246;DHT22;1635;48.000;10.582;2022-08-21T09:27:12;28.80;99.90
3246;DHT22;1635;48.000;10.582;2022-08-21T09:29:47;29.20;99.90
3246;DHT22;1635;48.000;10.582;2022-08-21T09:35:06;28.80;99.90
3246;DHT22;1635;48.000;10.582;2022-08-21T09:37:54;28.40;99.90
3246;DHT22;1635;48.000;10.582;2022-08-21T09:40:45;28.40;99.90
3246;DHT22;1635;48.000;10.582;2022-08-21T09:43:20;28.60;99.90
3246;DHT22;1635;48.000;10.582;2022-08-21T09:46:04;29.60;99.90
3246;DHT22;1635;48.000;10.582;2022-08-21T09:48:40;30.00;99.90
3246;DHT22;1635;48.000;10.582;2022-08-21T09:51:15;30.80;99.90
3246;DHT22;1635;48.000;10.582;2022-08-21T09:53:51;30.70;99.90
3246;DHT22;1635;48.000;10.582;2022-08-21T09:56:33;30.00;99.90
3246;DHT22;1635;48.000;10.582;2022-08-21T09:59:30;30.20;99.90
3246;DHT22;1635;48.000;10.582;2022-08-21T10:02:29;29.10;99.90
3246;DHT22;1635;48.000;10.582;2022-08-21T10:07:35;31.90;99.90
3246;DHT22;1635;48.000;10.582;2022-08-21T10:16:00;31.40;99.90
3246;DHT22;1635;48.000;10.582;2022-08-21T10:18:46;31.00;99.90
3246;DHT22;1635;48.000;10.582;2022-08-21T10:24:27;31.10;99.90
3246;DHT22;1635;48.000;10.582;2022-08-21T10:30:54;28.50;99.90
3246;DHT22;1635;48.000;10.582;2022-08-21T10:41:56;27.40;99.90
3246;DHT22;1635;48.000;10.582;2022-08-21T10:44:43;27.20;99.90
3246;DHT22;1635;48.000;10.582;2022-08-21T10:47:30;27.40;99.90
3246;DHT22;1635;48.000;10.582;2022-08-21T10:50:24;28.00;99.90
3246;DHT22;1635;48.000;10.582;2022-08-21T10:56:22;29.90;99.90
3246;DHT22;1635;48.000;10.582;2022-08-21T10:59:27;31.20;99.90
3246;DHT22;1635;48.000;10.582;2022-08-21T11:02:09;32.00;99.90
3246;DHT22;1635;48.000;10.582;2022-08-21T11:05:02;32.20;99.90
3246;DHT22;1635;48.000;10.582;2022-08-21T11:07:38;32.10;99.90
3246;DHT22;1635;48.000;10.582;2022-08-21T11:10:18;32.10;99.90
3246;DHT22;1635;48.000;10.582;2022-08-21T11:13:01;32.30;99.90
3246;DHT22;1635;48.000;10.582;2022-08-21T11:15:45;33.00;99.90
3246;DHT22;1635;48.000;10.582;2022-08-21T11:18:32;33.50;99.70
3246;DHT22;1635;48.000;10.582;2022-08-21T11:24:52;34.80;97.30
3246;DHT22;1635;48.000;10.582;2022-08-21T11:29:40;30.60;99.50
3246;DHT22;1635;48.000;10.582;2022-08-21T11:35:37;28.70;99.30
3246;DHT22;1635;48.000;10.582;2022-08-21T11:38:28;27.90;99.90
3246;DHT22;1635;48.000;10.582;2022-08-21T11:55:47;31.50;96.10
3246;DHT22;1635;48.000;10.582;2022-08-21T11:58:43;32.50;95.80
3246;DHT22;1635;48.000;10.582;2022-08-21T12:01:27;33.70;96.40
3246;DHT22;1635;48.000;10.582;2022-08-21T12:04:04;35.30;95.30
3246;DHT22;1635;48.000;10.582;2022-08-21T12:06:39;36.20;93.90
3246;DHT22;1635;48.000;10.582;2022-08-21T12:09:11;35.90;94.70
3246;DHT22;1635;48.000;10.582;2022-08-21T12:12:05;36.20;92.20
3246;DHT22;1635;48.000;10.582;2022-08-21T12:15:05;37.10;88.30
3246;DHT22;1635;48.000;10.582;2022-08-21T12:17:39;38.50;90.40
3246;DHT22;1635;48.000;10.582;2022-08-21T12:25:58;36.00;90.10
3246;DHT22;1635;48.000;10.582;2022-08-21T12:28:30;35.40;84.80
3246;DHT22;1635;48.000;10.582;2022-08-21T12:30:58;35.30;86.10
3246;DHT22;1635;48.000;10.582;2022-08-21T12:33:32;35.10;87.90
3246;DHT22;1635;48.000;10.582;2022-08-21T12:36:10;34.10;89.90
3246;DHT22;1635;48.000;10.582;2022-08-21T12:38:57;32.30;89.00
3246;DHT22;1635;48.000;10.582;2022-08-21T12:41:40;29.90;91.80
3246;DHT22;1635;48.000;10.582;2022-08-21T12:44:14;28.60;94.70
3246;DHT22;1635;48.000;10.582;2022-08-21T12:46:57;29.70;94.00
3246;DHT22;1635;48.000;10.582;2022-08-21T12:49:36;31.20;90.70
3246;DHT22;1635;48.000;10.582;2022-08-21T12:54:55;32.30;90.10
3246;DHT22;1635;48.000;10.582;2022-08-21T12:57:27;32.00;91.00
3246;DHT22;1635;48.000;10.582;2022-08-21T13:00:03;32.70;91.20
3246;DHT22;1635;48.000;10.582;2022-08-21T13:02:36;33.20;91.40
3246;DHT22;1635;48.000;10.582;2022-08-21T13:05:11;33.00;89.40
3246;DHT22;1635;48.000;10.582;2022-08-21T13:07:46;32.10;90.50
3246;DHT22;1635;48.000;10.582;2022-08-21T13:10:24;32.50;91.40
3246;DHT22;1635;48.000;10.582;2022-08-21T13:13:02;33.50;90.80
3246;DHT22;1635;48.000;10.582;2022-08-21T13:15:41;33.20;89.30
3246;DHT22;1635;48.000;10.582;2022-08-21T13:18:22;34.90;85.50
3246;DHT22;1635;48.000;10.582;2022-08-21T13:20:50;36.00;87.10
3246;DHT22;1635;48.000;10.582;2022-08-21T13:23:24;36.10;83.90
3246;DHT22;1635;48.000;10.582;2022-08-21T13:25:52;35.60;87.50
3246;DHT22;1635;48.000;10.582;2022-08-21T13:28:21;34.50;89.00
3246;DHT22;1635;48.000;10.582;2022-08-21T13:30:53;34.00;88.40
3246;DHT22;1635;48.000;10.582;2022-08-21T13:33:24;34.30;87.50
3246;DHT22;1635;48.000;10.582;2022-08-21T13:36:40;34.70;88.80
3246;DHT22;1635;48.000;10.582;2022-08-21T13:39:11;34.60;86.40
3246;DHT22;1635;48.000;10.582;2022-08-21T13:41:43;33.30;86.80
3246;DHT22;1635;48.000;10.582;2022-08-21T13:46:49;34.60;89.30
3246;DHT22;1635;48.000;10.582;2022-08-21T13:49:19;34.10;88.70
3246;DHT22;1635;48.000;10.582;2022-08-21T13:51:48;33.00;88.30
3246;DHT22;1635;48.000;10.582;2022-08-21T13:54:25;32.90;88.20
3246;DHT22;1635;48.000;10.582;2022-08-21T13:56:55;34.00;85.30
3246;DHT22;1635;48.000;10.582;2022-08-21T13:59:28;34.40;84.60
3246;DHT22;1635;48.000;10.582;2022-08-21T14:02:21;34.90;84.00
3246;DHT22;1635;48.000;10.582;2022-08-21T14:07:36;34.30;82.60
3246;DHT22;1635;48.000;10.582;2022-08-21T14:10:19;34.30;82.90
3246;DHT22;1635;48.000;10.582;2022-08-21T14:12:52;35.10;84.40
3246;DHT22;1635;48.000;10.582;2022-08-21T14:15:28;35.70;83.50
3246;DHT22;1635;48.000;10.582;2022-08-21T14:18:17;34.40;85.10
3246;DHT22;1635;48.000;10.582;2022-08-21T14:20:45;33.00;85.40
3246;DHT22;1635;48.000;10.582;2022-08-21T14:23:24;33.70;85.10
3246;DHT22;1635;48.000;10.582;2022-08-21T14:25:53;34.10;83.00
3246;DHT22;1635;48.000;10.582;2022-08-21T14:28:29;33.80;83.60
3246;DHT22;1635;48.000;10.582;2022-08-21T14:31:15;33.90;84.00
3246;DHT22;1635;48.000;10.582;2022-08-21T14:33:44;33.00;86.50
3246;DHT22;1635;48.000;10.582;2022-08-21T14:36:12;31.50;86.90
3246;DHT22;1635;48.000;10.582;2022-08-21T14:38:40;30.90;89.20
3246;DHT22;1635;48.000;10.582;2022-08-21T14:41:17;31.40;86.70
3246;DHT22;1635;48.000;10.582;2022-08-21T14:43:46;31.70;86.90
3246;DHT22;1635;48.000;10.582;2022-08-21T14:46:28;31.70;89.60
3246;DHT22;1635;48.000;10.582;2022-08-21T14:48:58;31.30;88.60
3246;DHT22;1635;48.000;10.582;2022-08-21T14:51:25;30.50;90.20
3246;DHT22;1635;48.000;10.582;2022-08-21T14:53:53;29.50;91.00
3246;DHT22;1635;48.000;10.582;2022-08-21T14:56:21;28.50;91.30
3246;DHT22;1635;48.000;10.582;2022-08-21T14:58:50;27.90;92.20
3246;DHT22;1635;48.000;10.582;2022-08-21T15:01:23;27.00;92.50
3246;DHT22;1635;48.000;10.582;2022-08-21T15:03:51;26.70;92.30
3246;DHT22;1635;48.000;10.582;2022-08-21T15:06:21;26.30;92.80
3246;DHT22;1635;48.000;10.582;2022-08-21T15:08:49;25.70;92.60
3246;DHT22;1635;48.000;10.582;2022-08-21T15:11:20;25.70;94.50
3246;DHT22;1635;48.000;10.582;2022-08-21T15:14:12;25.60;93.30
3246;DHT22;1635;48.000;10.582;2022-08-21T15:16:41;25.60;95.10
3246;DHT22;1635;48.000;10.582;2022-08-21T15:19:09;25.50;94.30
3246;DHT22;1635;48.000;10.582;2022-08-21T15:21:37;25.20;96.30
3246;DHT22;1635;48.000;10.582;2022-08-21T15:24:04;25.10;95.40
3246;DHT22;1635;48.000;10.582;2022-08-21T15:26:32;25.00;95.00
3246;DHT22;1635;48.000;10.582;2022-08-21T15:29:00;24.90;95.00
3246;DHT22;1635;48.000;10.582;2022-08-21T15:31:28;24.70;95.70
3246;DHT22;1635;48.000;10.582;2022-08-21T15:33:56;24.40;95.90
3246;DHT22;1635;48.000;10.582;2022-08-21T15:36:24;24.00;96.10
3246;DHT22;1635;48.000;10.582;2022-08-21T15:38:51;23.90;95.60
3246;DHT22;1635;48.000;10.582;2022-08-21T15:41:19;23.90;95.90
3246;DHT22;1635;48.000;10.582;2022-08-21T15:43:51;24.00;96.40
3246;DHT22;1635;48.000;10.582;2022-08-21T15:46:21;24.10;96.10
3246;DHT22;1635;48.000;10.582;2022-08-21T15:48:50;24.20;95.40
3246;DHT22;1635;48.000;10.582;2022-08-21T15:51:23;24.10;95.60
3246;DHT22;1635;48.000;10.582;2022-08-21T15:53:51;24.20;94.80
3246;DHT22;1635;48.000;10.582;2022-08-21T15:56:24;24.40;95.90
3246;DHT22;1635;48.000;10.582;2022-08-21T15:58:59;24.30;96.60
3246;DHT22;1635;48.000;10.582;2022-08-21T16:01:28;24.20;97.10
3246;DHT22;1635;48.000;10.582;2022-08-21T16:04:20;24.20;96.40
3246;DHT22;1635;48.000;10.582;2022-08-21T16:06:49;24.20;97.40
3246;DHT22;1635;48.000;10.582;2022-08-21T16:09:22;24.20;96.70
3246;DHT22;1635;48.000;10.582;2022-08-21T16:11:50;24.10;97.10
3246;DHT22;1635;48.000;10.582;2022-08-21T16:14:18;24.10;98.80
3246;DHT22;1635;48.000;10.582;2022-08-21T16:16:46;24.10;97.90
3246;DHT22;1635;48.000;10.582;2022-08-21T16:19:14;24.10;97.40
3246;DHT22;1635;48.000;10.582;2022-08-21T16:21:42;24.00;97.00
3246;DHT22;1635;48.000;10.582;2022-08-21T16:24:10;23.90;96.40
3246;DHT22;1635;48.000;10.582;2022-08-21T16:26:38;23.80;97.00
3246;DHT22;1635;48.000;10.582;2022-08-21T16:29:07;23.70;96.60
3246;DHT22;1635;48.000;10.582;2022-08-21T16:31:35;23.60;95.30
3246;DHT22;1635;48.000;10.582;2022-08-21T16:34:03;23.60;96.70
3246;DHT22;1635;48.000;10.582;2022-08-21T16:36:31;23.40;97.90
3246;DHT22;1635;48.000;10.582;2022-08-21T16:39:00;23.40;97.00
3246;DHT22;1635;48.000;10.582;2022-08-21T16:41:32;23.30;97.30
3246;DHT22;1635;48.000;10.582;2022-08-21T16:44:02;23.20;97.30
3246;DHT22;1635;48.000;10.582;2022-08-21T16:46:33;23.10;98.10
3246;DHT22;1635;48.000;10.582;2022-08-21T16:49:02;23.00;98.20
3246;DHT22;1635;48.000;10.582;2022-08-21T16:51:29;22.90;98.30
3246;DHT22;1635;48.000;10.582;2022-08-21T16:53:59;22.80;99.40
3246;DHT22;1635;48.000;10.582;2022-08-21T16:56:28;22.70;99.80
3246;DHT22;1635;48.000;10.582;2022-08-21T16:58:56;22.60;99.90
3246;DHT22;1635;48.000;10.582;2022-08-21T17:01:28;22.50;99.90
3246;DHT22;1635;48.000;10.582;2022-08-21T17:03:58;22.50;99.90
3246;DHT22;1635;48.000;10.582;2022-08-21T17:06:27;22.40;99.90
3246;DHT22;1635;48.000;10.582;2022-08-21T17:08:58;22.30;99.90
3246;DHT22;1635;48.000;10.582;2022-08-21T17:11:40;22.20;99.90
3246;DHT22;1635;48.000;10.582;2022-08-21T17:14:15;22.00;99.90
3246;DHT22;1635;48.000;10.582;2022-08-21T17:16:47;21.90;99.90
3246;DHT22;1635;48.000;10.582;2022-08-21T17:19:16;21.70;99.90
3246;DHT22;1635;48.000;10.582;2022-08-21T17:21:45;21.70;99.90
3246;DHT22;1635;48.000;10.582;2022-08-21T17:24:13;21.60;99.90
3246;DHT22;1635;48.000;10.582;2022-08-21T17:26:43;21.50;99.90
3246;DHT22;1635;48.000;10.582;2022-08-21T17:29:12;21.40;99.90
3246;DHT22;1635;48.000;10.582;2022-08-21T17:31:43;21.30;99.90
3246;DHT22;1635;48.000;10.582;2022-08-21T17:34:11;21.20;99.90
3246;DHT22;1635;48.000;10.582;2022-08-21T17:36:39;21.00;99.90